Valley Home, California
Current Conditions -  °F | °C
As of 12:53 AM on Thursday 18 Dec 2014 (Local Time) from KMOD Reporting Station
Overcast Overcast  
Wind Chill: 51°   Ceiling: 6000
Heat Index: 51°   Visibility: 7mi
Dew Point: 49°   Wind: 6mph
Humidity: 92%   Direction: 120°ESE
Pressure: 30.1"   Gusts: NA
Location:  37.7848°N, 120.772°W
Report Text: KMOD 180853Z AUTO 12005KT 7SM OVC060 11/09 A3010 RMK AO2 RAB01E34 SLP194 P0002 60004 T01060094 58004
Loading
Personal Weather Stations






























Interactive Weather Map New forecast layout! Learn more

10-Day Weather Forecast

Advertisements
Track Severe Weather on mobile